Česky Dansk Deutsch English Español Suomi Français Magyar Italiano Nederlands norsk Polski Português svenska Türkçe

 

Het Weer

Karlovy Vary (Tjechië)

14:00, 23 augustus 2016 (GMT)

NWNNE
WE
SWSSE
Home            
Karlovy Vary Hof Grafenwoehr Altenburg Nobitz Bayreuth Praha / Ruzyne Kuemmersruck Dresden-Klotzsche Hohenfels Leipzig-Schkeuditz Nuernberg Liberec Erfurt-Bindersleben Roth Holzdorf Ansbach / Katterbach Ingolstadt Illesheim Cottbus Flugplatz Kitzingen Usa \ Af Preschen Neuburg / Donau Oberosterreich / Freistadt Flugplatz

Om een weerknop op uw website of weblog te plaatsen, copieer onderstaande code en plak die in uw pagina. In het eerste vakje staat HTML-code, in het tweede vakje UBB-code.


Add to Google

Details

Wind speed:1 bf, 2 kn, 1.0 m/s, 2.3 miles/h, 3.7 km/h
Wind direction:Variable
Visibility:Greater than 10000 m, 10 km, 32800 ft, 6.2 miles
Clouds:CAVOC
Temperature:25°C, 77°F
Gefühlte Temperatur:26°C, 78°F
Dew-point:11°C, 52°F
Atmospheric pressure:1028 hPa, 771.1 mmHg, 30.36 inHg, 1.015 atm
Relative humidity:41.4 %
METAR:LKKV 231400Z VRB02KT CAVOK 25/11 Q1028

Snelkoppelingen

Actuele weersinformatie van de hele wereld. Voeg locaties toe met het plus (+) symbool. Deze snelkoppelingen kunnen worden toegevoegd aan Google.

Lid van de Technetium groep

website free tracking
StatCounter NetStat W3C Validator

24-11-2020 08:03:19
astro.technetium.be money.technetium.be phote.technetium.be tafeltennistafel.technetium.be www.ligfiets.net